createdAt,value
2023-05-14T00:00:15.717Z,1021.03
2023-05-14T00:00:25.376Z,1021.00
2023-05-14T00:00:34.553Z,1021.07
2023-05-14T00:00:43.946Z,1021.04
2023-05-14T00:00:53.342Z,1021.12
2023-05-14T00:01:02.733Z,1021.02
2023-05-14T00:01:21.551Z,1021.10
2023-05-14T00:01:30.947Z,1021.06
2023-05-14T00:01:40.340Z,1021.07
2023-05-14T00:01:49.790Z,1020.96
2023-05-14T00:01:59.214Z,1021.05
2023-05-14T00:02:08.594Z,1021.00
2023-05-14T00:02:27.450Z,1020.99
2023-05-14T00:02:36.833Z,1021.04
2023-05-14T00:02:46.200Z,1021.09
2023-05-14T00:02:55.681Z,1021.09
2023-05-14T00:03:05.036Z,1021.05
2023-05-14T00:03:14.577Z,1021.05
2023-05-14T00:03:33.280Z,1021.11
2023-05-14T00:03:42.624Z,1021.10
2023-05-14T00:03:52.082Z,1021.06
2023-05-14T00:04:01.401Z,1021.08
2023-05-14T00:04:10.757Z,1021.06
2023-05-14T00:04:20.175Z,1021.08
2023-05-14T00:04:38.973Z,1021.03
2023-05-14T00:04:48.312Z,1021.05
2023-05-14T00:04:57.729Z,1021.02
2023-05-14T00:05:07.129Z,1021.01
2023-05-14T00:05:16.532Z,1021.06
2023-05-14T00:05:25.939Z,1021.04
2023-05-14T00:05:44.767Z,1021.07
2023-05-14T00:05:54.171Z,1021.11
2023-05-14T00:06:03.551Z,1021.06
2023-05-14T00:06:12.949Z,1021.04
2023-05-14T00:06:22.352Z,1021.05
2023-05-14T00:06:31.734Z,1021.05
2023-05-14T00:06:50.511Z,1021.04
2023-05-14T00:06:59.941Z,1021.04
2023-05-14T00:07:09.313Z,1020.96
2023-05-14T00:07:18.758Z,1021.11
2023-05-14T00:07:28.192Z,1021.01
2023-05-14T00:07:37.596Z,1021.01
2023-05-14T00:07:56.444Z,1021.05
2023-05-14T00:08:05.829Z,1021.01
2023-05-14T00:08:15.228Z,1021.00
2023-05-14T00:08:24.633Z,1020.94
2023-05-14T00:08:34.025Z,1021.05
2023-05-14T00:08:43.424Z,1020.97
2023-05-14T00:09:02.215Z,1021.01
2023-05-14T00:09:11.711Z,1021.00
2023-05-14T00:09:21.079Z,1021.01
2023-05-14T00:09:30.480Z,1020.98
2023-05-14T00:09:39.867Z,1021.06
2023-05-14T00:09:49.266Z,1021.01
2023-05-14T00:10:08.031Z,1020.93
2023-05-14T00:10:17.413Z,1020.91
2023-05-14T00:10:26.818Z,1020.99
2023-05-14T00:10:36.217Z,1020.98
2023-05-14T00:10:45.727Z,1020.99
2023-05-14T00:10:55.103Z,1020.90
2023-05-14T00:11:13.930Z,1020.95
2023-05-14T00:11:23.356Z,1020.95
2023-05-14T00:11:32.756Z,1020.94
2023-05-14T00:11:42.157Z,1020.91
2023-05-14T00:11:51.593Z,1021.00
2023-05-14T00:12:01.007Z,1020.95
2023-05-14T00:12:19.813Z,1020.93
2023-05-14T00:12:29.225Z,1020.85
2023-05-14T00:12:38.637Z,1020.90
2023-05-14T00:12:48.055Z,1020.89
2023-05-14T00:12:57.496Z,1020.97
2023-05-14T00:13:06.888Z,1020.90
2023-05-14T00:13:25.691Z,1020.93
2023-05-14T00:13:35.097Z,1020.88
2023-05-14T00:13:44.514Z,1020.99
2023-05-14T00:13:53.913Z,1020.96
2023-05-14T00:14:03.324Z,1021.01
2023-05-14T00:14:12.724Z,1020.92
2023-05-14T00:14:31.606Z,1020.87
2023-05-14T00:14:41.010Z,1020.94
2023-05-14T00:14:50.415Z,1020.96
2023-05-14T00:14:59.801Z,1020.94
2023-05-14T00:15:09.195Z,1020.94
2023-05-14T00:15:18.594Z,1020.93
2023-05-14T00:15:37.489Z,1020.90
2023-05-14T00:15:46.820Z,1020.92
2023-05-14T00:15:56.288Z,1020.96
2023-05-14T00:16:05.664Z,1020.99
2023-05-14T00:16:15.176Z,1020.96
2023-05-14T00:16:24.436Z,1020.99
2023-05-14T00:16:43.237Z,1020.96
2023-05-14T00:16:52.678Z,1020.97
2023-05-14T00:17:02.144Z,1020.93
2023-05-14T00:17:11.594Z,1021.00
2023-05-14T00:17:21.087Z,1021.01
2023-05-14T00:17:30.433Z,1020.99
2023-05-14T00:17:49.210Z,1021.02
2023-05-14T00:17:58.606Z,1021.00
2023-05-14T00:18:08.016Z,1021.01
2023-05-14T00:18:17.384Z,1021.00
2023-05-14T00:18:26.803Z,1021.00
2023-05-14T00:18:36.311Z,1021.04
2023-05-14T00:18:55.148Z,1021.07
2023-05-14T00:19:04.579Z,1021.06
2023-05-14T00:19:14.001Z,1021.10
2023-05-14T00:19:23.366Z,1021.03
2023-05-14T00:19:32.781Z,1021.13
2023-05-14T00:19:42.186Z,1020.99
2023-05-14T00:20:01.069Z,1021.06
2023-05-14T00:20:10.458Z,1021.04
2023-05-14T00:20:19.874Z,1021.02
2023-05-14T00:20:29.296Z,1021.03
2023-05-14T00:20:38.666Z,1021.01
2023-05-14T00:20:48.076Z,1021.04
2023-05-14T00:21:06.937Z,1020.97
2023-05-14T00:21:16.318Z,1021.03
2023-05-14T00:21:25.729Z,1021.01
2023-05-14T00:21:35.146Z,1020.98
2023-05-14T00:21:44.540Z,1021.06
2023-05-14T00:21:53.922Z,1021.02
2023-05-14T00:22:12.802Z,1021.01
2023-05-14T00:22:22.212Z,1021.04
2023-05-14T00:22:31.611Z,1021.04
2023-05-14T00:22:41.019Z,1020.94
2023-05-14T00:22:50.423Z,1020.95
2023-05-14T00:22:59.825Z,1021.01
2023-05-14T00:23:18.619Z,1021.07
2023-05-14T00:23:28.019Z,1020.95
2023-05-14T00:23:37.469Z,1021.04
2023-05-14T00:23:46.865Z,1020.99
2023-05-14T00:23:56.244Z,1021.04
2023-05-14T00:24:05.647Z,1021.06
2023-05-14T00:24:24.501Z,1021.09
2023-05-14T00:24:33.902Z,1021.02
2023-05-14T00:24:43.357Z,1021.00
2023-05-14T00:24:52.745Z,1020.99
2023-05-14T00:25:02.164Z,1021.04
2023-05-14T00:25:11.559Z,1021.02
2023-05-14T00:25:30.353Z,1021.06
2023-05-14T00:25:39.743Z,1021.02
2023-05-14T00:25:49.163Z,1021.01
2023-05-14T00:25:58.575Z,1020.99
2023-05-14T00:26:07.988Z,1021.00
2023-05-14T00:26:17.404Z,1020.97
2023-05-14T00:26:36.199Z,1020.97
2023-05-14T00:26:45.597Z,1020.94
2023-05-14T00:26:54.984Z,1021.03
2023-05-14T00:27:04.418Z,1021.01
2023-05-14T00:27:13.811Z,1021.00
2023-05-14T00:27:23.205Z,1020.99
2023-05-14T00:27:42.028Z,1020.95
2023-05-14T00:27:51.443Z,1021.03
2023-05-14T00:28:00.855Z,1021.00
2023-05-14T00:28:10.256Z,1021.04
2023-05-14T00:28:19.652Z,1020.94
2023-05-14T00:28:29.051Z,1021.03
2023-05-14T00:28:47.860Z,1021.04
2023-05-14T00:28:57.242Z,1021.01
2023-05-14T00:29:06.645Z,1021.02
2023-05-14T00:29:16.076Z,1021.05
2023-05-14T00:29:25.458Z,1021.04
2023-05-14T00:29:34.884Z,1021.01
2023-05-14T00:29:53.745Z,1021.01
2023-05-14T00:30:03.168Z,1021.04
2023-05-14T00:30:12.581Z,1021.09
2023-05-14T00:30:22.362Z,1021.06
2023-05-14T00:30:31.438Z,1021.05
2023-05-14T00:30:40.869Z,1021.06
2023-05-14T00:30:59.726Z,1021.07
2023-05-14T00:31:09.142Z,1021.04
2023-05-14T00:31:18.499Z,1021.06
2023-05-14T00:31:27.904Z,1021.04
2023-05-14T00:31:37.347Z,1021.11
2023-05-14T00:31:46.752Z,1021.05
2023-05-14T00:32:05.537Z,1021.10
2023-05-14T00:32:14.946Z,1021.00
2023-05-14T00:32:24.373Z,1021.10
2023-05-14T00:32:33.821Z,1021.00
2023-05-14T00:32:43.198Z,1021.06
2023-05-14T00:32:52.594Z,1021.07
2023-05-14T00:33:11.360Z,1021.05
2023-05-14T00:33:20.748Z,1020.99
2023-05-14T00:33:30.209Z,1021.00
2023-05-14T00:33:39.701Z,1021.03
2023-05-14T00:33:49.122Z,1021.05
2023-05-14T00:33:58.519Z,1021.01
2023-05-14T00:34:17.294Z,1021.01
2023-05-14T00:34:26.705Z,1021.03
2023-05-14T00:34:36.103Z,1021.01
2023-05-14T00:34:45.510Z,1021.02
2023-05-14T00:34:54.903Z,1020.99
2023-05-14T00:35:04.309Z,1021.01
2023-05-14T00:35:23.088Z,1021.00
2023-05-14T00:35:32.511Z,1020.99
2023-05-14T00:35:41.924Z,1020.99
2023-05-14T00:35:51.322Z,1020.93
2023-05-14T00:36:00.779Z,1021.00
2023-05-14T00:36:10.164Z,1020.99
2023-05-14T00:36:28.973Z,1020.99
2023-05-14T00:36:38.371Z,1020.91
2023-05-14T00:36:47.760Z,1020.97
2023-05-14T00:36:57.168Z,1021.01
2023-05-14T00:37:06.593Z,1020.93
2023-05-14T00:37:15.994Z,1020.98
2023-05-14T00:37:34.793Z,1020.94
2023-05-14T00:37:44.207Z,1020.93
2023-05-14T00:37:53.813Z,1020.95
2023-05-14T00:38:03.219Z,1020.90
2023-05-14T00:38:12.590Z,1020.99
2023-05-14T00:38:22.021Z,1020.90
2023-05-14T00:38:40.863Z,1020.95
2023-05-14T00:38:50.256Z,1020.90
2023-05-14T00:38:59.682Z,1020.93
2023-05-14T00:39:09.074Z,1021.02
2023-05-14T00:39:18.504Z,1020.96
2023-05-14T00:39:27.911Z,1020.89
2023-05-14T00:39:46.737Z,1020.94
2023-05-14T00:39:56.133Z,1020.95
2023-05-14T00:40:05.547Z,1020.95
2023-05-14T00:40:14.936Z,1020.92
2023-05-14T00:40:24.612Z,1020.97
2023-05-14T00:40:33.737Z,1020.97
2023-05-14T00:40:52.526Z,1020.89
2023-05-14T00:41:01.908Z,1020.99
2023-05-14T00:41:11.304Z,1020.94
2023-05-14T00:41:20.691Z,1020.99
2023-05-14T00:41:30.096Z,1020.94
2023-05-14T00:41:39.503Z,1020.93
2023-05-14T00:41:58.327Z,1020.93
2023-05-14T00:42:07.751Z,1020.95
2023-05-14T00:42:17.143Z,1020.90
2023-05-14T00:42:26.539Z,1020.92
2023-05-14T00:42:35.959Z,1020.92
2023-05-14T00:42:45.383Z,1020.97
2023-05-14T00:43:04.180Z,1020.98
2023-05-14T00:43:13.562Z,1020.98
2023-05-14T00:43:23.001Z,1021.00
2023-05-14T00:43:32.377Z,1020.98
2023-05-14T00:43:41.797Z,1020.96
2023-05-14T00:43:51.190Z,1020.93
2023-05-14T00:44:09.991Z,1020.97
2023-05-14T00:44:19.402Z,1020.91
2023-05-14T00:44:28.802Z,1020.95
2023-05-14T00:44:38.209Z,1020.94
2023-05-14T00:44:47.628Z,1020.93
2023-05-14T00:44:57.029Z,1020.96
2023-05-14T00:45:15.844Z,1020.93
2023-05-14T00:45:25.244Z,1020.98
2023-05-14T00:45:34.642Z,1020.98
2023-05-14T00:45:44.045Z,1020.99
2023-05-14T00:45:53.441Z,1020.96
2023-05-14T00:46:02.840Z,1020.96
2023-05-14T00:46:21.794Z,1020.95
2023-05-14T00:46:31.134Z,1020.95
2023-05-14T00:46:40.504Z,1021.03
2023-05-14T00:46:49.880Z,1020.97
2023-05-14T00:46:59.313Z,1021.02
2023-05-14T00:47:08.788Z,1020.99
2023-05-14T00:47:27.549Z,1021.00
2023-05-14T00:47:36.880Z,1020.95
2023-05-14T00:47:46.310Z,1021.03
2023-05-14T00:47:55.707Z,1020.98
2023-05-14T00:48:05.128Z,1020.94
2023-05-14T00:48:14.470Z,1020.97
2023-05-14T00:48:33.314Z,1020.95
2023-05-14T00:48:42.692Z,1021.00
2023-05-14T00:48:52.099Z,1020.98
2023-05-14T00:49:01.556Z,1020.96
2023-05-14T00:49:10.984Z,1020.96
2023-05-14T00:49:20.382Z,1021.02
2023-05-14T00:49:39.215Z,1021.00
2023-05-14T00:49:48.637Z,1020.97
2023-05-14T00:49:58.028Z,1020.89
2023-05-14T00:50:07.435Z,1020.94
2023-05-14T00:50:16.876Z,1020.94
2023-05-14T00:50:26.467Z,1020.96
2023-05-14T00:50:45.083Z,1020.97
2023-05-14T00:50:54.498Z,1020.97
2023-05-14T00:51:03.918Z,1020.97
2023-05-14T00:51:13.324Z,1020.96
2023-05-14T00:51:22.730Z,1020.97
2023-05-14T00:51:32.133Z,1020.95
2023-05-14T00:51:51.054Z,1020.95
2023-05-14T00:52:00.447Z,1021.00
2023-05-14T00:52:09.853Z,1020.99
2023-05-14T00:52:19.304Z,1020.89
2023-05-14T00:52:28.695Z,1020.95
2023-05-14T00:52:38.119Z,1020.91
2023-05-14T00:52:56.900Z,1020.98
2023-05-14T00:53:06.295Z,1020.96
2023-05-14T00:53:15.674Z,1021.00
2023-05-14T00:53:25.076Z,1020.94
2023-05-14T00:53:34.475Z,1020.95
2023-05-14T00:53:43.899Z,1020.89
2023-05-14T00:54:02.700Z,1020.94
2023-05-14T00:54:12.169Z,1020.96
2023-05-14T00:54:21.566Z,1020.98
2023-05-14T00:54:30.968Z,1021.00
2023-05-14T00:54:40.359Z,1021.02
2023-05-14T00:54:49.745Z,1021.03
2023-05-14T00:55:08.565Z,1020.94
2023-05-14T00:55:17.971Z,1021.00
2023-05-14T00:55:27.361Z,1020.99
2023-05-14T00:55:36.793Z,1020.93
2023-05-14T00:55:46.186Z,1021.04
2023-05-14T00:55:55.574Z,1020.98
2023-05-14T00:56:14.388Z,1021.03
2023-05-14T00:56:23.797Z,1021.02
2023-05-14T00:56:33.228Z,1020.94
2023-05-14T00:56:42.652Z,1021.01
2023-05-14T00:56:52.071Z,1020.96
2023-05-14T00:57:01.510Z,1021.00
2023-05-14T00:57:20.392Z,1020.94
2023-05-14T00:57:29.790Z,1020.92
2023-05-14T00:57:39.175Z,1020.91
2023-05-14T00:57:48.592Z,1021.01
2023-05-14T00:57:58.008Z,1020.90
2023-05-14T00:58:07.409Z,1020.99
2023-05-14T00:58:26.191Z,1020.98
2023-05-14T00:58:35.719Z,1020.91
2023-05-14T00:58:45.139Z,1020.91
2023-05-14T00:58:54.527Z,1020.93
2023-05-14T00:59:03.915Z,1020.94
2023-05-14T00:59:13.327Z,1020.91
2023-05-14T00:59:32.156Z,1020.99
2023-05-14T00:59:41.568Z,1020.93
2023-05-14T00:59:51.031Z,1020.95
2023-05-14T01:00:00.386Z,1020.98
2023-05-14T01:00:09.780Z,1020.95
2023-05-14T01:00:19.163Z,1020.92
2023-05-14T01:00:38.007Z,1020.92
2023-05-14T01:00:47.506Z,1020.92
2023-05-14T01:00:56.829Z,1020.99
2023-05-14T01:01:06.202Z,1020.94
2023-05-14T01:01:15.685Z,1020.95
2023-05-14T01:01:25.100Z,1020.88
2023-05-14T01:01:43.837Z,1020.93
2023-05-14T01:01:53.236Z,1020.89
2023-05-14T01:02:02.643Z,1020.91
2023-05-14T01:02:12.081Z,1020.91
2023-05-14T01:02:21.582Z,1020.91
2023-05-14T01:02:31.077Z,1020.89
2023-05-14T01:02:49.867Z,1020.94
2023-05-14T01:02:59.390Z,1020.88
2023-05-14T01:03:08.747Z,1020.84
2023-05-14T01:03:18.152Z,1020.88
2023-05-14T01:03:27.629Z,1020.91
2023-05-14T01:03:36.956Z,1020.92
2023-05-14T01:03:55.859Z,1020.91
2023-05-14T01:04:05.162Z,1020.96
2023-05-14T01:04:14.509Z,1020.90
2023-05-14T01:04:23.919Z,1020.89
2023-05-14T01:04:33.337Z,1020.91
2023-05-14T01:04:42.727Z,1020.88
2023-05-14T01:05:01.596Z,1020.91
2023-05-14T01:05:10.982Z,1020.91
2023-05-14T01:05:20.375Z,1020.90
2023-05-14T01:05:29.783Z,1020.89
2023-05-14T01:05:39.185Z,1020.94
2023-05-14T01:05:48.589Z,1020.88
2023-05-14T01:06:07.419Z,1020.86
2023-05-14T01:06:16.815Z,1020.88
2023-05-14T01:06:26.220Z,1020.89
2023-05-14T01:06:35.622Z,1020.88
2023-05-14T01:06:45.012Z,1020.94
2023-05-14T01:06:54.441Z,1020.90
2023-05-14T01:07:13.271Z,1020.87
2023-05-14T01:07:22.693Z,1020.90
2023-05-14T01:07:32.105Z,1020.90
2023-05-14T01:07:41.497Z,1020.86
2023-05-14T01:07:50.895Z,1020.90
2023-05-14T01:08:00.311Z,1020.85
2023-05-14T01:08:19.118Z,1020.87
2023-05-14T01:08:28.533Z,1020.87
2023-05-14T01:08:37.979Z,1020.90
2023-05-14T01:08:47.373Z,1020.90
2023-05-14T01:08:56.780Z,1020.88
2023-05-14T01:09:06.194Z,1020.92
2023-05-14T01:09:25.027Z,1020.88
2023-05-14T01:09:34.443Z,1020.93
2023-05-14T01:09:43.844Z,1020.84
2023-05-14T01:09:53.245Z,1020.82
2023-05-14T01:10:02.655Z,1020.89
2023-05-14T01:10:12.069Z,1020.86
2023-05-14T01:10:30.925Z,1020.86
2023-05-14T01:10:40.333Z,1020.80
2023-05-14T01:10:49.781Z,1020.84
2023-05-14T01:10:59.151Z,1020.86
2023-05-14T01:11:08.557Z,1020.87
2023-05-14T01:11:17.955Z,1020.87
2023-05-14T01:11:36.782Z,1020.84
2023-05-14T01:11:46.167Z,1020.91
2023-05-14T01:11:55.595Z,1020.82
2023-05-14T01:12:04.978Z,1020.85
2023-05-14T01:12:14.382Z,1020.85
2023-05-14T01:12:23.784Z,1020.86
2023-05-14T01:12:42.604Z,1020.88
2023-05-14T01:12:52.003Z,1020.81
2023-05-14T01:13:01.493Z,1020.86
2023-05-14T01:13:10.880Z,1020.87
2023-05-14T01:13:20.292Z,1020.86
2023-05-14T01:13:29.712Z,1020.85
2023-05-14T01:13:48.486Z,1020.82
2023-05-14T01:13:57.888Z,1020.85
2023-05-14T01:14:07.296Z,1020.79
2023-05-14T01:14:16.710Z,1020.84
2023-05-14T01:14:26.111Z,1020.86
2023-05-14T01:14:35.531Z,1020.81
2023-05-14T01:14:54.340Z,1020.83
2023-05-14T01:15:03.732Z,1020.82
2023-05-14T01:15:13.147Z,1020.82
2023-05-14T01:15:22.533Z,1020.86
2023-05-14T01:15:32.012Z,1020.79
2023-05-14T01:15:41.453Z,1020.85
2023-05-14T01:16:00.341Z,1020.82
2023-05-14T01:16:09.775Z,1020.90
2023-05-14T01:16:19.182Z,1020.81
2023-05-14T01:16:28.566Z,1020.84
2023-05-14T01:16:38.033Z,1020.84
2023-05-14T01:16:47.418Z,1020.83
2023-05-14T01:17:06.197Z,1020.76
2023-05-14T01:17:15.657Z,1020.83
2023-05-14T01:17:25.121Z,1020.83
2023-05-14T01:17:34.540Z,1020.83
2023-05-14T01:17:43.989Z,1020.83
2023-05-14T01:17:53.354Z,1020.84
2023-05-14T01:18:12.435Z,1020.85
2023-05-14T01:18:21.720Z,1020.77
2023-05-14T01:18:31.143Z,1020.82
2023-05-14T01:18:40.566Z,1020.84
2023-05-14T01:18:49.999Z,1020.83
2023-05-14T01:18:59.403Z,1020.77
2023-05-14T01:19:18.165Z,1020.81
2023-05-14T01:19:27.570Z,1020.81
2023-05-14T01:19:36.939Z,1020.86
2023-05-14T01:19:46.368Z,1020.78
2023-05-14T01:19:55.755Z,1020.85
2023-05-14T01:20:05.158Z,1020.80
2023-05-14T01:20:24.209Z,1020.80
2023-05-14T01:20:33.366Z,1020.84
2023-05-14T01:20:42.769Z,1020.78
2023-05-14T01:20:52.179Z,1020.89
2023-05-14T01:21:01.597Z,1020.79
2023-05-14T01:21:11.014Z,1020.83
2023-05-14T01:21:29.920Z,1020.84
2023-05-14T01:21:39.307Z,1020.86
2023-05-14T01:21:48.719Z,1020.77
2023-05-14T01:21:58.112Z,1020.87
2023-05-14T01:22:07.521Z,1020.84
2023-05-14T01:22:16.974Z,1020.81
2023-05-14T01:22:35.793Z,1020.79
2023-05-14T01:22:45.196Z,1020.77
2023-05-14T01:22:54.609Z,1020.84
2023-05-14T01:23:04.017Z,1020.77
2023-05-14T01:23:13.418Z,1020.85
2023-05-14T01:23:22.840Z,1020.82
2023-05-14T01:23:41.624Z,1020.81
2023-05-14T01:23:51.098Z,1020.80
2023-05-14T01:24:00.430Z,1020.91
2023-05-14T01:24:09.836Z,1020.80
2023-05-14T01:24:19.233Z,1020.81
2023-05-14T01:24:28.664Z,1020.86
2023-05-14T01:24:47.446Z,1020.89
2023-05-14T01:24:56.858Z,1020.76
2023-05-14T01:25:06.247Z,1020.83
2023-05-14T01:25:15.648Z,1020.82
2023-05-14T01:25:25.059Z,1020.80
2023-05-14T01:25:34.440Z,1020.77
2023-05-14T01:25:53.219Z,1020.80
2023-05-14T01:26:02.596Z,1020.82
2023-05-14T01:26:11.995Z,1020.84
2023-05-14T01:26:21.415Z,1020.82
2023-05-14T01:26:30.807Z,1020.87
2023-05-14T01:26:40.297Z,1020.80
2023-05-14T01:26:59.077Z,1020.81
2023-05-14T01:27:08.489Z,1020.79
2023-05-14T01:27:17.938Z,1020.82
2023-05-14T01:27:27.335Z,1020.83
2023-05-14T01:27:36.760Z,1020.87
2023-05-14T01:27:46.142Z,1020.78
2023-05-14T01:28:04.941Z,1020.85
2023-05-14T01:28:14.340Z,1020.86
2023-05-14T01:28:23.722Z,1020.81
2023-05-14T01:28:33.143Z,1020.81
2023-05-14T01:28:42.525Z,1020.78
2023-05-14T01:28:51.971Z,1020.80
2023-05-14T01:29:10.863Z,1020.84
2023-05-14T01:29:20.286Z,1020.85
2023-05-14T01:29:29.681Z,1020.84
2023-05-14T01:29:39.056Z,1020.82
2023-05-14T01:29:48.446Z,1020.81
2023-05-14T01:29:57.837Z,1020.83
2023-05-14T01:30:16.634Z,1020.77
2023-05-14T01:30:26.310Z,1020.83
2023-05-14T01:30:35.426Z,1020.74
2023-05-14T01:30:44.798Z,1020.79
2023-05-14T01:30:54.194Z,1020.74
2023-05-14T01:31:03.585Z,1020.73
2023-05-14T01:31:22.461Z,1020.75
2023-05-14T01:31:31.872Z,1020.73
2023-05-14T01:31:41.274Z,1020.76
2023-05-14T01:31:50.711Z,1020.74
2023-05-14T01:32:00.211Z,1020.71
2023-05-14T01:32:09.439Z,1020.73
2023-05-14T01:32:28.304Z,1020.76
2023-05-14T01:32:37.715Z,1020.80
2023-05-14T01:32:47.096Z,1020.74
2023-05-14T01:32:56.506Z,1020.79
2023-05-14T01:33:05.854Z,1020.78
2023-05-14T01:33:15.198Z,1020.79
2023-05-14T01:33:33.973Z,1020.81
2023-05-14T01:33:43.397Z,1020.75
2023-05-14T01:33:52.769Z,1020.79
2023-05-14T01:34:02.198Z,1020.76
2023-05-14T01:34:11.568Z,1020.75
2023-05-14T01:34:20.956Z,1020.74
2023-05-14T01:34:39.783Z,1020.73
2023-05-14T01:34:49.193Z,1020.77
2023-05-14T01:34:58.629Z,1020.78
2023-05-14T01:35:08.015Z,1020.72
2023-05-14T01:35:17.436Z,1020.81
2023-05-14T01:35:26.842Z,1020.75
2023-05-14T01:35:45.681Z,1020.80
2023-05-14T01:35:55.053Z,1020.71
2023-05-14T01:36:04.422Z,1020.69
2023-05-14T01:36:13.824Z,1020.72
2023-05-14T01:36:23.229Z,1020.68
2023-05-14T01:36:32.632Z,1020.74
2023-05-14T01:36:51.441Z,1020.71
2023-05-14T01:37:00.833Z,1020.72
2023-05-14T01:37:10.306Z,1020.73
2023-05-14T01:37:19.699Z,1020.71
2023-05-14T01:37:29.092Z,1020.75
2023-05-14T01:37:38.496Z,1020.68
2023-05-14T01:37:57.305Z,1020.62
2023-05-14T01:38:06.698Z,1020.72
2023-05-14T01:38:16.105Z,1020.73
2023-05-14T01:38:25.497Z,1020.66
2023-05-14T01:38:34.877Z,1020.67
2023-05-14T01:38:44.262Z,1020.67
2023-05-14T01:39:03.068Z,1020.68
2023-05-14T01:39:12.458Z,1020.63
2023-05-14T01:39:21.851Z,1020.62
2023-05-14T01:39:31.244Z,1020.72
2023-05-14T01:39:40.653Z,1020.70
2023-05-14T01:39:50.041Z,1020.63
2023-05-14T01:40:08.884Z,1020.66
2023-05-14T01:40:18.272Z,1020.62
2023-05-14T01:40:27.659Z,1020.62
2023-05-14T01:40:37.055Z,1020.65
2023-05-14T01:40:46.463Z,1020.62
2023-05-14T01:40:55.846Z,1020.68
2023-05-14T01:41:14.654Z,1020.65
2023-05-14T01:41:24.022Z,1020.66
2023-05-14T01:41:33.463Z,1020.63
2023-05-14T01:41:42.872Z,1020.65
2023-05-14T01:41:52.259Z,1020.69
2023-05-14T01:42:01.679Z,1020.66
2023-05-14T01:42:20.471Z,1020.63
2023-05-14T01:42:29.873Z,1020.63
2023-05-14T01:42:39.271Z,1020.61
2023-05-14T01:42:48.700Z,1020.68
2023-05-14T01:42:58.108Z,1020.60
2023-05-14T01:43:07.492Z,1020.65
2023-05-14T01:43:26.426Z,1020.66
2023-05-14T01:43:36.004Z,1020.66
2023-05-14T01:43:45.162Z,1020.64
2023-05-14T01:43:54.562Z,1020.64
2023-05-14T01:44:04.015Z,1020.65
2023-05-14T01:44:13.395Z,1020.60
2023-05-14T01:44:32.193Z,1020.62
2023-05-14T01:44:41.626Z,1020.65
2023-05-14T01:44:51.120Z,1020.69
2023-05-14T01:45:00.482Z,1020.65
2023-05-14T01:45:09.948Z,1020.60
2023-05-14T01:45:19.324Z,1020.66
2023-05-14T01:45:38.107Z,1020.66
2023-05-14T01:45:47.565Z,1020.61
2023-05-14T01:45:56.918Z,1020.68
2023-05-14T01:46:06.318Z,1020.65
2023-05-14T01:46:15.685Z,1020.59
2023-05-14T01:46:25.079Z,1020.63
2023-05-14T01:46:43.813Z,1020.66
2023-05-14T01:46:53.223Z,1020.64
2023-05-14T01:47:02.627Z,1020.59
2023-05-14T01:47:12.013Z,1020.63
2023-05-14T01:47:21.474Z,1020.66
2023-05-14T01:47:30.895Z,1020.63
2023-05-14T01:47:49.698Z,1020.68
2023-05-14T01:47:59.075Z,1020.63
2023-05-14T01:48:08.459Z,1020.61
2023-05-14T01:48:17.811Z,1020.62
2023-05-14T01:48:27.219Z,1020.62
2023-05-14T01:48:36.604Z,1020.62
2023-05-14T01:48:55.397Z,1020.56
2023-05-14T01:49:04.797Z,1020.66
2023-05-14T01:49:14.244Z,1020.51
2023-05-14T01:49:23.630Z,1020.62
2023-05-14T01:49:33.025Z,1020.56
2023-05-14T01:49:42.407Z,1020.61
2023-05-14T01:50:01.202Z,1020.56
2023-05-14T01:50:10.608Z,1020.61
2023-05-14T01:50:20.003Z,1020.64
2023-05-14T01:50:29.404Z,1020.63
2023-05-14T01:50:38.791Z,1020.59
2023-05-14T01:50:48.196Z,1020.59
2023-05-14T01:51:06.993Z,1020.57
2023-05-14T01:51:16.391Z,1020.58
2023-05-14T01:51:25.796Z,1020.54
2023-05-14T01:51:35.196Z,1020.54
2023-05-14T01:51:44.673Z,1020.58
2023-05-14T01:51:54.070Z,1020.53
2023-05-14T01:52:12.853Z,1020.57
2023-05-14T01:52:22.295Z,1020.54
2023-05-14T01:52:31.700Z,1020.56
2023-05-14T01:52:41.091Z,1020.59
2023-05-14T01:52:50.490Z,1020.53
2023-05-14T01:52:59.906Z,1020.59
2023-05-14T01:53:18.690Z,1020.52
2023-05-14T01:53:28.079Z,1020.54
2023-05-14T01:53:37.487Z,1020.55
2023-05-14T01:53:46.911Z,1020.57
2023-05-14T01:53:56.334Z,1020.53
2023-05-14T01:54:05.726Z,1020.57
2023-05-14T01:54:24.505Z,1020.51
2023-05-14T01:54:33.894Z,1020.54
2023-05-14T01:54:43.327Z,1020.51
2023-05-14T01:54:52.708Z,1020.55
2023-05-14T01:55:02.102Z,1020.58
2023-05-14T01:55:11.539Z,1020.55
2023-05-14T01:55:30.325Z,1020.54
2023-05-14T01:55:39.759Z,1020.57
2023-05-14T01:55:49.145Z,1020.50
2023-05-14T01:55:58.609Z,1020.51
2023-05-14T01:56:07.941Z,1020.54
2023-05-14T01:56:17.358Z,1020.55
2023-05-14T01:56:36.171Z,1020.52
2023-05-14T01:56:45.600Z,1020.54
2023-05-14T01:56:55.005Z,1020.54
2023-05-14T01:57:04.402Z,1020.55
2023-05-14T01:57:14.367Z,1020.56
2023-05-14T01:57:23.806Z,1020.53
2023-05-14T01:57:42.583Z,1020.48
2023-05-14T01:57:52.043Z,1020.48
2023-05-14T01:58:01.501Z,1020.50
2023-05-14T01:58:10.885Z,1020.54
2023-05-14T01:58:20.277Z,1020.46
2023-05-14T01:58:29.680Z,1020.47
2023-05-14T01:58:48.463Z,1020.55
2023-05-14T01:58:57.853Z,1020.46
2023-05-14T01:59:07.243Z,1020.53
2023-05-14T01:59:16.640Z,1020.48
2023-05-14T01:59:26.016Z,1020.48
2023-05-14T01:59:35.402Z,1020.53
2023-05-14T01:59:54.185Z,1020.55
2023-05-14T02:00:03.598Z,1020.55
2023-05-14T02:00:13.029Z,1020.55
2023-05-14T02:00:22.680Z,1020.51
2023-05-14T02:00:31.862Z,1020.45
2023-05-14T02:00:41.223Z,1020.53
2023-05-14T02:01:00.065Z,1020.44
2023-05-14T02:01:09.414Z,1020.48
2023-05-14T02:01:18.819Z,1020.48
2023-05-14T02:01:28.202Z,1020.50
2023-05-14T02:01:37.668Z,1020.47
2023-05-14T02:01:46.994Z,1020.40
2023-05-14T02:02:05.788Z,1020.49
2023-05-14T02:02:15.183Z,1020.51
2023-05-14T02:02:24.670Z,1020.45
2023-05-14T02:02:34.090Z,1020.50
2023-05-14T02:02:43.510Z,1020.47
2023-05-14T02:02:52.861Z,1020.50
2023-05-14T02:03:11.695Z,1020.50
2023-05-14T02:03:21.033Z,1020.54
2023-05-14T02:03:30.480Z,1020.47
2023-05-14T02:03:39.839Z,1020.52
2023-05-14T02:03:49.239Z,1020.41
2023-05-14T02:03:58.704Z,1020.47
2023-05-14T02:04:17.557Z,1020.43
2023-05-14T02:04:26.854Z,1020.48
2023-05-14T02:04:36.198Z,1020.53
2023-05-14T02:04:45.628Z,1020.47
2023-05-14T02:04:55.003Z,1020.49
2023-05-14T02:05:06.320Z,1020.42
2023-05-14T02:05:23.170Z,1020.53
2023-05-14T02:05:32.576Z,1020.47
2023-05-14T02:05:41.962Z,1020.47
2023-05-14T02:05:51.397Z,1020.47
2023-05-14T02:06:00.776Z,1020.46
2023-05-14T02:06:10.180Z,1020.50
2023-05-14T02:06:29.034Z,1020.53
2023-05-14T02:06:38.417Z,1020.49
2023-05-14T02:06:47.808Z,1020.48
2023-05-14T02:06:57.204Z,1020.43
2023-05-14T02:07:06.620Z,1020.43
2023-05-14T02:07:16.018Z,1020.37
2023-05-14T02:07:34.859Z,1020.43
2023-05-14T02:07:44.259Z,1020.44
2023-05-14T02:07:53.673Z,1020.49
2023-05-14T02:08:03.070Z,1020.49
2023-05-14T02:08:12.472Z,1020.48
2023-05-14T02:08:21.870Z,1020.45
2023-05-14T02:08:40.642Z,1020.50
2023-05-14T02:08:50.039Z,1020.49
2023-05-14T02:08:59.468Z,1020.51
2023-05-14T02:09:08.887Z,1020.51
2023-05-14T02:09:18.323Z,1020.48
2023-05-14T02:09:27.735Z,1020.43
2023-05-14T02:09:46.561Z,1020.49
2023-05-14T02:09:55.979Z,1020.46
2023-05-14T02:10:05.439Z,1020.51
2023-05-14T02:10:14.863Z,1020.43
2023-05-14T02:10:24.446Z,1020.46
2023-05-14T02:10:33.691Z,1020.48
2023-05-14T02:10:52.507Z,1020.48
2023-05-14T02:11:01.938Z,1020.50
2023-05-14T02:11:11.359Z,1020.44
2023-05-14T02:11:20.766Z,1020.53
2023-05-14T02:11:30.162Z,1020.47
2023-05-14T02:11:39.576Z,1020.44
2023-05-14T02:11:58.411Z,1020.49
2023-05-14T02:12:07.841Z,1020.45
2023-05-14T02:12:17.239Z,1020.47
2023-05-14T02:12:26.715Z,1020.51
2023-05-14T02:12:36.134Z,1020.54
2023-05-14T02:12:45.522Z,1020.51